Alden, NY

1:03 AM EST on November 23, 2014 (GMT -0500)
Millgrove | Change Station
CLOSE
Current Station
Personal Weather Station
Location: Alden, NY
Elevation: 774 ft
Nearby Weather Stations

Elev 774 ft 42.95 °N, 78.55 °W | Updated 17 seconds ago

Rain
Rain
41.9 °F
Feels Like 42 °F
N
3.0
Wind Variable Wind from SW
Gusts 4.0 mph

Today
High -- | Low -- °F
--% Chance of Precip.
Yesterday
High -- | Low -- °F
Precip. -- in
7:16 AM 4:44 PM
New Moon, 1% visible
Pressure 30.02 in
Visibility 10.0 miles
Clouds Scattered Clouds 2600 ft
Mostly Cloudy 3200 ft
Overcast 4500 ft
Windchill 42 °F
Dew Point 39 °F
Humidity 90%
Rainfall 0.00 in
Snow Depth Not available.
UV 0 out of 12
Pollen .10 out of 12
Air Quality Not available.
Flu Activity Not available.
METAR KBUF 230554Z 22009KT 10SM -RA SCT026 BKN032 OVC045 06/03 A3000 RMK AO2 RAB0455 SLP164 4/002 P0007 60013 T00560033 10061 20044 53005

More Conditions Fewer Conditions

Pressure 30.02 in
Visibility 10.0 miles
Clouds Scattered Clouds 2600 ft
Mostly Cloudy 3200 ft
Overcast 4500 ft
Windchill 42 °F
Dew Point 39 °F
Humidity 90%
Rainfall 0.00 in
Snow Depth Not available.
UV 0 out of 12
Pollen .10 out of 12
Air Quality Not available.
Flu Activity Not available.
METAR KBUF 230554Z 22009KT 10SM -RA SCT026 BKN032 OVC045 06/03 A3000 RMK AO2 RAB0455 SLP164 4/002 P0007 60013 T00560033 10061 20044 53005

More Conditions Fewer Conditions

10-Day Weather Forecast

Almanac

Astronomy

Nov. 23, 2014 Rise Set
Actual Time
Civil Twilight
Nautical Twilight
Astronomical Twilight
Moon
Length of Visible Light
Length of Day
Tomorrow will be .
, % of the Moon is Illuminated

Today's Extremes

State Highs State Lows

Community

WunderPhotos

Upload Photos

1,773,019 photos uploaded!

WunderBlogs® & News

Nearby

Air Quality

  Air Quality AQ Index Pollutant
Not available.

Snow Depth

Station Depth Elevation

Earthquake Activity

City Distance Mag. Time & Date
Minimum magnitude displayed is 2.5.

Coastal Water Temperatures

Place Temperature

Nearby Weather Stations